Time;durP1;ratioP1;P1;durP2;ratioP2;P2;SDS_P1;SDS_P2;PMS_P1;PMS_P2;Temp;Humidity;BMP_temperature;BMP_pressure;BME280_temperature;BME280_humidity;BME280_pressure;Samples;Min_cycle;Max_cycle;Signal;HPM_P1;HPM_P2
2023/01/23 00:02:16;;;;;;;;;;;2.60;99.90;;;;;;5016247;28;20365;-75
2023/01/23 00:04:42;;;;;;;;;;;2.60;99.90;;;;;;5017846;28;19910;-75
2023/01/23 00:07:08;;;;;;;;;;;2.70;99.90;;;;;;5015613;28;19975;-75
2023/01/23 00:09:33;;;;;;;;;;;2.80;99.90;;;;;;5026546;28;19937;-73
2023/01/23 00:11:59;;;;;;;;;;;2.70;99.90;;;;;;5013761;28;19964;-75
2023/01/23 00:14:24;;;;;;;;;;;2.70;99.90;;;;;;5009572;28;19917;-75
2023/01/23 00:16:50;;;;;;;;;;;2.70;99.90;;;;;;5001410;28;19909;-75
2023/01/23 00:19:15;;;;;;;;;;;2.70;99.90;;;;;;5008792;28;19932;-74
2023/01/23 00:21:41;;;;;;;;;;;2.70;99.90;;;;;;5017215;28;19913;-74
2023/01/23 00:24:09;;;;;;;;;;;2.60;99.90;;;;;;5012292;28;19914;-76
2023/01/23 00:26:35;;;;;;;;;;;2.70;99.90;;;;;;5015612;28;19909;-72
2023/01/23 00:29:00;;;;;;;;;;;2.80;99.90;;;;;;5009963;28;19913;-73
2023/01/23 00:31:27;;;;;;;;;;;2.80;99.90;;;;;;5012544;28;19917;-73
2023/01/23 00:33:54;;;;;;;;;;;2.70;99.90;;;;;;5008718;28;20440;-72
2023/01/23 00:36:19;;;;;;;;;;;2.60;99.90;;;;;;5014270;28;19952;-78
2023/01/23 00:38:45;;;;;;;;;;;2.60;99.90;;;;;;5022264;28;19932;-76
2023/01/23 00:41:11;;;;;;;;;;;2.60;99.90;;;;;;5011652;28;19963;-73
2023/01/23 00:43:37;;;;;;;;;;;2.70;99.90;;;;;;5034643;28;20127;-75
2023/01/23 00:46:03;;;;;;;;;;;2.70;99.90;;;;;;5013513;28;20682;-73
2023/01/23 00:48:28;;;;;;;;;;;2.70;99.90;;;;;;5005534;28;20008;-78
2023/01/23 00:50:54;;;;;;;;;;;2.80;99.90;;;;;;5016314;28;20532;-75
2023/01/23 00:53:19;;;;;;;;;;;2.70;99.90;;;;;;5008417;28;19917;-76
2023/01/23 00:55:45;;;;;;;;;;;2.60;99.90;;;;;;5003711;28;19937;-76
2023/01/23 00:58:11;;;;;;;;;;;2.70;99.90;;;;;;5013987;28;19913;-77
2023/01/23 01:00:37;;;;;;;;;;;2.70;99.90;;;;;;5013504;28;19949;-73
2023/01/23 01:03:03;;;;;;;;;;;2.70;99.90;;;;;;5007658;28;19921;-73
2023/01/23 01:05:28;;;;;;;;;;;2.70;99.90;;;;;;5006439;28;19963;-75
2023/01/23 01:07:54;;;;;;;;;;;2.70;99.90;;;;;;5019677;28;19924;-73
2023/01/23 01:10:19;;;;;;;;;;;2.70;99.90;;;;;;5003797;28;19909;-75
2023/01/23 01:12:45;;;;;;;;;;;2.70;99.90;;;;;;5021921;28;19920;-73
2023/01/23 01:15:11;;;;;;;;;;;2.70;99.90;;;;;;5008504;28;19917;-74
2023/01/23 01:17:37;;;;;;;;;;;2.70;99.90;;;;;;5005115;28;19988;-74
2023/01/23 01:20:03;;;;;;;;;;;2.70;99.90;;;;;;5016548;28;19948;-74
2023/01/23 01:22:30;;;;;;;;;;;2.80;99.90;;;;;;4996926;28;20707;-74
2023/01/23 01:24:56;;;;;;;;;;;2.80;99.90;;;;;;5004040;28;20005;-74
2023/01/23 01:27:21;;;;;;;;;;;2.80;99.90;;;;;;5005239;28;19920;-74
2023/01/23 01:29:47;;;;;;;;;;;2.80;99.90;;;;;;5021694;28;20015;-75
2023/01/23 01:32:13;;;;;;;;;;;2.80;99.90;;;;;;5020052;28;20382;-73
2023/01/23 01:34:38;;;;;;;;;;;2.80;99.90;;;;;;5002696;28;19910;-74
2023/01/23 01:37:04;;;;;;;;;;;2.90;99.90;;;;;;5014979;28;19920;-73
2023/01/23 01:39:30;;;;;;;;;;;2.80;99.90;;;;;;5026277;28;20396;-72
2023/01/23 01:41:55;;;;;;;;;;;2.90;99.90;;;;;;5001902;28;19959;-74
2023/01/23 01:44:21;;;;;;;;;;;3.00;99.90;;;;;;5009741;28;19925;-75
2023/01/23 01:46:47;;;;;;;;;;;2.90;99.90;;;;;;5006908;28;20673;-74
2023/01/23 01:49:25;;;;;;;;;;;2.70;99.90;;;;;;5002570;28;19909;-74
2023/01/23 01:51:58;;;;;;;;;;;2.70;99.90;;;;;;4998604;28;19918;-73
2023/01/23 01:54:38;;;;;;;;;;;2.80;99.90;;;;;;5014103;28;20574;-76
2023/01/23 01:57:04;;;;;;;;;;;2.80;99.90;;;;;;5018963;28;20389;-74
2023/01/23 01:59:32;;;;;;;;;;;2.80;99.90;;;;;;5009946;28;19917;-74
2023/01/23 02:02:03;;;;;;;;;;;2.80;99.90;;;;;;5008762;28;19913;-73
2023/01/23 02:04:30;;;;;;;;;;;2.80;99.90;;;;;;5003407;28;19980;-73
2023/01/23 02:06:57;;;;;;;;;;;2.70;99.90;;;;;;5002453;28;20537;-74
2023/01/23 02:09:25;;;;;;;;;;;2.70;99.90;;;;;;5008623;28;19920;-73
2023/01/23 02:11:51;;;;;;;;;;;2.80;99.90;;;;;;5019736;28;19913;-74
2023/01/23 02:14:17;;;;;;;;;;;2.70;99.90;;;;;;5009067;28;19909;-74
2023/01/23 02:16:49;;;;;;;;;;;2.70;99.90;;;;;;5005369;28;19924;-74
2023/01/23 02:19:23;;;;;;;;;;;2.70;99.90;;;;;;5008385;28;19920;-75
2023/01/23 02:21:53;;;;;;;;;;;2.80;99.90;;;;;;5005083;28;19987;-74
2023/01/23 02:24:31;;;;;;;;;;;2.70;99.90;;;;;;5007682;28;19913;-74
2023/01/23 02:26:56;;;;;;;;;;;2.70;99.90;;;;;;5004699;28;19913;-75
2023/01/23 02:29:22;;;;;;;;;;;2.70;99.90;;;;;;5011739;28;19972;-74
2023/01/23 02:31:51;;;;;;;;;;;2.80;99.90;;;;;;5008548;28;19923;-74
2023/01/23 02:34:17;;;;;;;;;;;2.90;99.90;;;;;;5020654;28;19935;-75
2023/01/23 02:36:44;;;;;;;;;;;2.90;99.90;;;;;;5018205;28;19981;-73
2023/01/23 02:39:14;;;;;;;;;;;2.80;99.90;;;;;;5026023;28;19920;-75
2023/01/23 02:41:46;;;;;;;;;;;2.80;99.90;;;;;;5009255;28;19914;-73
2023/01/23 02:44:28;;;;;;;;;;;2.80;99.90;;;;;;5003056;28;19922;-75
2023/01/23 02:46:54;;;;;;;;;;;2.90;99.90;;;;;;5018359;28;19924;-73
2023/01/23 02:49:21;;;;;;;;;;;3.00;99.90;;;;;;5008328;28;19984;-75
2023/01/23 02:51:47;;;;;;;;;;;3.10;99.90;;;;;;5013144;28;20386;-73
2023/01/23 02:54:13;;;;;;;;;;;2.90;99.90;;;;;;5011031;28;19932;-75
2023/01/23 02:56:40;;;;;;;;;;;2.80;99.90;;;;;;5005579;28;20287;-74
2023/01/23 03:01:50;;;;;;;;;;;2.80;99.90;;;;;;5015144;28;20433;-76
2023/01/23 03:04:16;;;;;;;;;;;2.70;99.90;;;;;;5001566;28;19917;-75
2023/01/23 03:06:42;;;;;;;;;;;2.90;99.90;;;;;;5016011;28;19917;-76
2023/01/23 03:09:09;;;;;;;;;;;2.80;99.90;;;;;;5012013;28;19909;-77
2023/01/23 03:11:35;;;;;;;;;;;2.80;99.90;;;;;;5010477;28;20056;-74
2023/01/23 03:14:01;;;;;;;;;;;2.90;99.90;;;;;;5013216;28;19917;-76
2023/01/23 03:16:27;;;;;;;;;;;2.90;99.90;;;;;;5015131;28;19913;-75
2023/01/23 03:18:53;;;;;;;;;;;2.90;99.90;;;;;;5008219;28;19924;-74
2023/01/23 03:21:19;;;;;;;;;;;2.70;99.90;;;;;;5009498;28;19925;-76
2023/01/23 03:23:46;;;;;;;;;;;2.70;99.90;;;;;;5016436;28;20286;-75
2023/01/23 03:26:12;;;;;;;;;;;2.80;99.90;;;;;;5017950;28;19917;-75
2023/01/23 03:31:22;;;;;;;;;;;2.90;99.90;;;;;;5005225;28;19921;-75
2023/01/23 03:33:48;;;;;;;;;;;2.90;99.90;;;;;;5004573;28;19952;-74
2023/01/23 03:36:14;;;;;;;;;;;3.10;99.90;;;;;;5005742;28;19920;-76
2023/01/23 03:41:23;;;;;;;;;;;3.00;99.90;;;;;;5004642;28;19963;-75
2023/01/23 03:41:25;;;;;;;;;;;2.80;99.90;;;;;;5005226;28;20410;-76
2023/01/23 03:43:51;;;;;;;;;;;2.90;99.90;;;;;;5006378;28;20275;-75
2023/01/23 03:46:16;;;;;;;;;;;3.00;99.90;;;;;;5003661;28;19916;-74
2023/01/23 03:48:42;;;;;;;;;;;2.90;99.90;;;;;;5008488;28;20602;-74
2023/01/23 03:51:07;;;;;;;;;;;2.90;99.90;;;;;;5011437;28;19917;-74
2023/01/23 03:53:33;;;;;;;;;;;2.90;99.90;;;;;;5009465;28;19921;-73
2023/01/23 03:55:59;;;;;;;;;;;2.90;99.90;;;;;;5009576;28;19931;-74
2023/01/23 03:58:25;;;;;;;;;;;3.00;99.90;;;;;;5012169;28;19932;-74
2023/01/23 04:00:50;;;;;;;;;;;2.90;99.90;;;;;;5006606;28;20596;-72
2023/01/23 04:03:16;;;;;;;;;;;2.90;99.90;;;;;;5006136;28;20286;-75
2023/01/23 04:05:41;;;;;;;;;;;2.90;99.90;;;;;;5017253;28;20137;-75
2023/01/23 04:08:07;;;;;;;;;;;3.00;99.90;;;;;;5013587;28;19918;-75
2023/01/23 04:10:32;;;;;;;;;;;2.90;99.90;;;;;;5019103;28;19913;-74
2023/01/23 04:12:58;;;;;;;;;;;2.90;99.90;;;;;;5005865;28;19913;-74
2023/01/23 04:15:23;;;;;;;;;;;3.00;99.90;;;;;;5007634;28;19921;-74
2023/01/23 04:17:49;;;;;;;;;;;3.00;99.90;;;;;;5014337;28;19913;-74
2023/01/23 04:20:14;;;;;;;;;;;2.90;99.90;;;;;;5018472;28;20252;-75
2023/01/23 04:22:40;;;;;;;;;;;3.00;99.90;;;;;;5005668;28;20302;-75
2023/01/23 04:25:06;;;;;;;;;;;3.00;99.90;;;;;;5012134;28;20358;-75
2023/01/23 04:27:31;;;;;;;;;;;3.00;99.90;;;;;;5008942;28;20282;-74
2023/01/23 04:29:57;;;;;;;;;;;3.00;99.90;;;;;;5014015;28;19917;-74
2023/01/23 04:32:23;;;;;;;;;;;3.10;99.90;;;;;;5010466;28;19910;-76
2023/01/23 04:34:48;;;;;;;;;;;3.10;99.90;;;;;;5021141;28;19921;-73
2023/01/23 04:37:14;;;;;;;;;;;3.10;99.90;;;;;;5008499;28;19914;-75
2023/01/23 04:39:39;;;;;;;;;;;3.20;99.90;;;;;;5013198;28;19913;-75
2023/01/23 04:42:05;;;;;;;;;;;3.10;99.90;;;;;;5005282;28;19928;-76
2023/01/23 04:44:30;;;;;;;;;;;3.00;99.90;;;;;;5006896;28;19967;-73
2023/01/23 04:46:56;;;;;;;;;;;3.00;99.90;;;;;;5009768;28;19914;-76
2023/01/23 04:49:22;;;;;;;;;;;3.00;99.90;;;;;;5010552;28;19917;-74
2023/01/23 04:51:48;;;;;;;;;;;3.10;99.90;;;;;;5006016;28;19940;-73
2023/01/23 04:54:14;;;;;;;;;;;3.10;99.90;;;;;;5005747;28;19914;-74
2023/01/23 04:56:40;;;;;;;;;;;3.10;99.90;;;;;;5013056;28;19916;-77
2023/01/23 04:59:06;;;;;;;;;;;3.10;99.90;;;;;;5011609;28;19984;-74
2023/01/23 05:01:31;;;;;;;;;;;3.20;99.90;;;;;;5023979;28;19921;-74
2023/01/23 05:03:57;;;;;;;;;;;3.20;99.90;;;;;;5003194;28;19937;-73
2023/01/23 05:06:22;;;;;;;;;;;3.20;99.90;;;;;;5004077;28;19944;-73
2023/01/23 05:08:48;;;;;;;;;;;3.30;99.90;;;;;;5015075;28;19984;-73
2023/01/23 05:11:14;;;;;;;;;;;3.20;99.90;;;;;;5009724;28;19910;-74
2023/01/23 05:13:39;;;;;;;;;;;3.20;99.90;;;;;;5009221;28;20366;-74
2023/01/23 05:16:05;;;;;;;;;;;3.30;99.90;;;;;;5007679;28;20027;-74
2023/01/23 05:18:31;;;;;;;;;;;3.30;99.90;;;;;;5005142;28;20482;-75
2023/01/23 05:21:00;;;;;;;;;;;3.30;99.90;;;;;;5007591;28;19913;-75
2023/01/23 05:23:25;;;;;;;;;;;3.30;99.90;;;;;;5024444;28;19940;-75
2023/01/23 05:25:51;;;;;;;;;;;3.30;99.90;;;;;;5003821;28;20575;-73
2023/01/23 05:28:16;;;;;;;;;;;3.30;99.90;;;;;;5006857;28;19932;-74
2023/01/23 05:30:41;;;;;;;;;;;3.40;99.90;;;;;;5004084;28;20338;-75
2023/01/23 05:33:07;;;;;;;;;;;3.40;99.90;;;;;;5010097;28;19959;-72
2023/01/23 05:35:32;;;;;;;;;;;3.50;99.90;;;;;;5005806;28;19914;-74
2023/01/23 05:37:58;;;;;;;;;;;3.50;99.90;;;;;;5004143;28;20015;-75
2023/01/23 05:40:23;;;;;;;;;;;3.50;99.90;;;;;;4998847;28;20319;-73
2023/01/23 05:42:49;;;;;;;;;;;3.50;99.90;;;;;;5004116;28;19913;-74
2023/01/23 05:45:15;;;;;;;;;;;3.60;99.90;;;;;;5000349;28;19921;-72
2023/01/23 05:47:41;;;;;;;;;;;3.60;99.90;;;;;;5009344;28;20047;-73
2023/01/23 05:50:07;;;;;;;;;;;3.70;99.90;;;;;;5001766;28;19914;-73
2023/01/23 05:52:33;;;;;;;;;;;3.60;99.90;;;;;;4999762;28;19910;-74
2023/01/23 05:54:59;;;;;;;;;;;3.70;99.90;;;;;;5004737;28;19924;-73
2023/01/23 05:57:24;;;;;;;;;;;3.70;99.90;;;;;;5006489;28;19909;-73
2023/01/23 05:59:50;;;;;;;;;;;3.70;99.90;;;;;;5003335;28;20290;-74
2023/01/23 06:02:15;;;;;;;;;;;3.70;99.90;;;;;;4999208;28;19996;-73
2023/01/23 06:04:41;;;;;;;;;;;3.80;99.90;;;;;;5006242;28;19925;-74
2023/01/23 06:07:11;;;;;;;;;;;3.70;99.90;;;;;;5008557;28;20024;-73
2023/01/23 06:09:36;;;;;;;;;;;3.80;99.90;;;;;;5009709;28;19921;-76
2023/01/23 06:12:02;;;;;;;;;;;3.70;99.90;;;;;;5005806;28;19910;-76
2023/01/23 06:14:28;;;;;;;;;;;3.80;99.90;;;;;;5011357;28;19913;-73
2023/01/23 06:16:53;;;;;;;;;;;3.80;99.90;;;;;;5012023;28;19909;-73
2023/01/23 06:19:19;;;;;;;;;;;3.80;99.90;;;;;;5012840;28;19921;-73
2023/01/23 06:21:44;;;;;;;;;;;3.80;99.90;;;;;;5005616;28;20342;-71
2023/01/23 06:24:10;;;;;;;;;;;3.80;99.90;;;;;;5001550;28;19945;-73
2023/01/23 06:26:35;;;;;;;;;;;3.90;99.90;;;;;;4996681;28;19972;-73
2023/01/23 06:29:01;;;;;;;;;;;3.90;99.90;;;;;;5004082;28;20633;-73
2023/01/23 06:31:26;;;;;;;;;;;3.90;99.90;;;;;;5010028;28;19924;-72
2023/01/23 06:33:52;;;;;;;;;;;4.00;99.90;;;;;;4997368;28;19925;-74
2023/01/23 06:36:17;;;;;;;;;;;4.00;99.90;;;;;;5000118;28;19940;-73
2023/01/23 06:38:42;;;;;;;;;;;4.00;99.90;;;;;;4995892;28;19916;-74
2023/01/23 06:41:11;;;;;;;;;;;4.10;99.90;;;;;;4996358;28;19918;-72
2023/01/23 06:43:36;;;;;;;;;;;4.10;99.90;;;;;;5002602;28;19914;-74
2023/01/23 06:46:02;;;;;;;;;;;4.10;99.90;;;;;;5004353;28;19964;-73
2023/01/23 06:48:27;;;;;;;;;;;4.10;99.90;;;;;;5003175;28;19914;-72
2023/01/23 06:50:53;;;;;;;;;;;4.10;99.90;;;;;;5007924;28;19913;-75
2023/01/23 06:53:19;;;;;;;;;;;4.10;99.90;;;;;;5015063;28;19914;-73
2023/01/23 06:55:44;;;;;;;;;;;4.10;99.90;;;;;;5011222;28;20004;-75
2023/01/23 06:58:10;;;;;;;;;;;4.20;99.90;;;;;;5012046;28;20007;-74
2023/01/23 07:00:36;;;;;;;;;;;4.20;99.90;;;;;;5015456;28;19914;-74
2023/01/23 07:03:02;;;;;;;;;;;4.10;99.90;;;;;;5003318;28;19921;-74
2023/01/23 07:05:31;;;;;;;;;;;4.10;99.90;;;;;;5007279;28;19913;-72
2023/01/23 07:07:56;;;;;;;;;;;4.20;99.90;;;;;;4999655;28;20631;-75
2023/01/23 07:10:22;;;;;;;;;;;4.20;99.90;;;;;;5001434;28;19961;-74
2023/01/23 07:12:49;;;;;;;;;;;4.20;99.90;;;;;;5015181;28;19920;-73
2023/01/23 07:15:15;;;;;;;;;;;4.20;99.90;;;;;;5005979;28;19918;-74
2023/01/23 07:17:40;;;;;;;;;;;4.30;99.90;;;;;;5004322;28;19969;-72
2023/01/23 07:20:06;;;;;;;;;;;4.30;99.90;;;;;;5000706;28;19960;-73
2023/01/23 07:22:32;;;;;;;;;;;4.30;99.90;;;;;;5004884;28;19921;-74
2023/01/23 07:24:57;;;;;;;;;;;4.30;99.90;;;;;;5008822;28;20565;-72
2023/01/23 07:27:23;;;;;;;;;;;4.30;99.90;;;;;;5015680;28;19939;-73
2023/01/23 07:29:48;;;;;;;;;;;4.40;99.90;;;;;;5014055;28;20247;-73
2023/01/23 07:32:14;;;;;;;;;;;4.30;99.90;;;;;;5004566;28;19936;-74
2023/01/23 07:34:39;;;;;;;;;;;4.40;99.90;;;;;;5007855;28;19975;-73
2023/01/23 07:37:05;;;;;;;;;;;4.40;99.90;;;;;;5013439;28;20621;-73
2023/01/23 07:39:31;;;;;;;;;;;4.50;99.90;;;;;;5016276;28;19910;-74
2023/01/23 07:41:56;;;;;;;;;;;4.40;99.90;;;;;;5020142;28;19921;-74
2023/01/23 07:44:22;;;;;;;;;;;4.60;99.90;;;;;;5005571;28;19913;-73
2023/01/23 07:46:48;;;;;;;;;;;4.70;99.90;;;;;;5013617;28;19910;-74
2023/01/23 07:49:14;;;;;;;;;;;4.60;99.90;;;;;;5006386;28;19920;-73
2023/01/23 07:51:40;;;;;;;;;;;4.60;99.90;;;;;;5002671;28;19913;-73
2023/01/23 07:54:05;;;;;;;;;;;4.60;99.90;;;;;;5008076;28;19940;-72
2023/01/23 07:56:31;;;;;;;;;;;4.50;99.90;;;;;;5006791;28;20485;-76
2023/01/23 07:58:57;;;;;;;;;;;4.70;99.90;;;;;;5005161;28;20278;-73
2023/01/23 08:01:23;;;;;;;;;;;4.70;99.90;;;;;;4998212;28;19917;-70
2023/01/23 08:03:48;;;;;;;;;;;4.60;99.90;;;;;;4998989;28;19928;-75
2023/01/23 08:06:14;;;;;;;;;;;4.70;99.90;;;;;;5009787;28;19933;-73
2023/01/23 08:08:39;;;;;;;;;;;4.70;99.90;;;;;;5007708;28;19917;-74
2023/01/23 08:11:06;;;;;;;;;;;4.70;99.90;;;;;;4999189;28;20555;-75
2023/01/23 08:13:31;;;;;;;;;;;4.70;99.90;;;;;;5001839;28;19913;-74
2023/01/23 08:15:57;;;;;;;;;;;4.70;99.90;;;;;;5007622;28;19924;-75
2023/01/23 08:18:24;;;;;;;;;;;4.70;99.90;;;;;;5009006;28;20107;-73
2023/01/23 08:20:57;;;;;;;;;;;4.80;99.90;;;;;;5020174;28;19909;-72
2023/01/23 08:23:23;;;;;;;;;;;4.70;99.90;;;;;;5007032;28;19937;-71
2023/01/23 08:25:51;;;;;;;;;;;5.00;99.90;;;;;;4996116;28;20559;-72
2023/01/23 08:28:17;;;;;;;;;;;4.90;99.90;;;;;;5009964;28;19976;-73
2023/01/23 08:30:42;;;;;;;;;;;4.70;99.90;;;;;;5005776;28;20375;-75
2023/01/23 08:33:08;;;;;;;;;;;4.80;99.90;;;;;;4996581;28;20379;-74
2023/01/23 08:35:33;;;;;;;;;;;4.80;99.90;;;;;;4997330;28;19910;-74
2023/01/23 08:37:59;;;;;;;;;;;4.80;99.90;;;;;;5003380;28;19940;-74
2023/01/23 08:40:24;;;;;;;;;;;4.80;99.90;;;;;;5008707;28;19921;-73
2023/01/23 08:42:50;;;;;;;;;;;4.80;99.90;;;;;;5000820;28;19956;-72
2023/01/23 08:45:15;;;;;;;;;;;4.90;99.90;;;;;;5008748;28;19922;-73
2023/01/23 08:47:41;;;;;;;;;;;4.90;99.90;;;;;;4998566;28;19924;-72
2023/01/23 08:50:07;;;;;;;;;;;4.90;99.90;;;;;;4993897;28;20383;-73
2023/01/23 08:52:34;;;;;;;;;;;4.80;99.90;;;;;;5001100;28;19988;-72
2023/01/23 08:54:59;;;;;;;;;;;4.80;99.90;;;;;;4995702;28;19910;-74
2023/01/23 08:57:25;;;;;;;;;;;4.80;99.90;;;;;;4993031;28;19917;-75
2023/01/23 08:59:50;;;;;;;;;;;4.70;99.90;;;;;;4997465;28;20528;-71
2023/01/23 09:02:16;;;;;;;;;;;4.60;99.90;;;;;;5007695;28;20298;-74
2023/01/23 09:04:41;;;;;;;;;;;4.50;99.90;;;;;;5011091;28;19914;-74
2023/01/23 09:07:07;;;;;;;;;;;4.50;99.90;;;;;;5008937;28;20000;-73
2023/01/23 09:09:32;;;;;;;;;;;4.50;99.90;;;;;;5002776;28;19929;-75
2023/01/23 09:11:58;;;;;;;;;;;4.50;99.90;;;;;;5003000;28;20035;-74
2023/01/23 09:14:23;;;;;;;;;;;4.50;99.90;;;;;;4994423;28;20437;-75
2023/01/23 09:16:49;;;;;;;;;;;4.50;99.90;;;;;;5001507;28;19917;-74
2023/01/23 09:19:14;;;;;;;;;;;4.60;99.90;;;;;;4997576;28;19918;-75
2023/01/23 09:21:40;;;;;;;;;;;4.50;99.90;;;;;;5003791;28;19949;-75
2023/01/23 09:24:05;;;;;;;;;;;4.40;99.90;;;;;;5002654;28;20004;-72
2023/01/23 09:26:31;;;;;;;;;;;4.40;99.90;;;;;;5001475;28;20268;-72
2023/01/23 09:28:56;;;;;;;;;;;4.30;99.90;;;;;;5002147;28;20000;-72
2023/01/23 09:31:22;;;;;;;;;;;4.30;99.90;;;;;;5010469;28;19921;-74
2023/01/23 09:33:47;;;;;;;;;;;4.50;99.90;;;;;;5009178;28;20004;-72
2023/01/23 09:36:13;;;;;;;;;;;4.50;99.90;;;;;;5008489;28;19913;-73
2023/01/23 09:38:38;;;;;;;;;;;4.40;99.90;;;;;;5009588;28;20343;-72
2023/01/23 09:41:09;;;;;;;;;;;4.40;99.90;;;;;;5004438;28;19916;-75
2023/01/23 09:43:38;;;;;;;;;;;4.40;99.90;;;;;;5009186;28;19931;-72
2023/01/23 09:46:11;;;;;;;;;;;4.50;99.90;;;;;;5002244;28;19910;-75
2023/01/23 09:48:43;;;;;;;;;;;4.80;99.90;;;;;;5014723;28;19910;-73
2023/01/23 09:51:27;;;;;;;;;;;4.70;99.90;;;;;;5006153;28;20542;-72
2023/01/23 09:53:57;;;;;;;;;;;4.50;99.90;;;;;;5007410;28;19913;-72
2023/01/23 09:56:30;;;;;;;;;;;4.40;99.90;;;;;;5013617;28;19914;-72
2023/01/23 09:59:13;;;;;;;;;;;4.40;99.90;;;;;;5001271;28;20243;-71
2023/01/23 10:01:39;;;;;;;;;;;4.40;99.90;;;;;;5010006;28;19918;-73
2023/01/23 10:04:05;;;;;;;;;;;4.40;99.90;;;;;;5006892;28;19923;-74
2023/01/23 10:06:38;;;;;;;;;;;4.30;99.90;;;;;;5014531;28;19918;-75
2023/01/23 10:09:12;;;;;;;;;;;4.10;99.90;;;;;;5013879;28;19936;-74
2023/01/23 10:11:38;;;;;;;;;;;4.20;99.90;;;;;;5005862;28;20263;-77
2023/01/23 10:14:19;;;;;;;;;;;4.30;99.90;;;;;;4999410;28;19932;-74
2023/01/23 10:17:02;;;;;;;;;;;4.20;99.90;;;;;;5016844;28;19916;-74
2023/01/23 10:19:33;;;;;;;;;;;4.20;99.90;;;;;;5009087;28;19929;-73
2023/01/23 10:22:02;;;;;;;;;;;4.20;99.90;;;;;;5002083;28;20013;-73
2023/01/23 10:24:34;;;;;;;;;;;4.20;99.90;;;;;;5005642;28;20138;-73
2023/01/23 10:27:06;;;;;;;;;;;4.20;99.90;;;;;;5023100;28;19992;-72
2023/01/23 10:29:37;;;;;;;;;;;4.20;99.90;;;;;;5009644;28;19913;-74
2023/01/23 10:32:05;;;;;;;;;;;4.30;99.90;;;;;;5016341;28;19940;-75
2023/01/23 10:34:39;;;;;;;;;;;4.30;99.90;;;;;;5017353;28;19909;-74
2023/01/23 10:37:14;;;;;;;;;;;4.30;99.90;;;;;;5011167;28;19914;-73
2023/01/23 10:39:39;;;;;;;;;;;4.30;99.90;;;;;;5009197;28;19913;-71
2023/01/23 10:42:09;;;;;;;;;;;4.30;99.90;;;;;;5009607;28;19917;-75
2023/01/23 10:44:34;;;;;;;;;;;4.30;99.90;;;;;;5012273;28;19909;-72
2023/01/23 10:47:02;;;;;;;;;;;4.30;99.90;;;;;;5012197;28;20453;-74
2023/01/23 10:49:28;;;;;;;;;;;4.40;99.90;;;;;;5008809;28;20694;-72
2023/01/23 10:51:54;;;;;;;;;;;4.40;99.90;;;;;;5009613;28;20012;-72
2023/01/23 10:54:20;;;;;;;;;;;4.40;99.90;;;;;;5008043;28;19913;-72
2023/01/23 10:57:09;;;;;;;;;;;4.50;99.90;;;;;;5008848;28;19913;-74
2023/01/23 10:59:37;;;;;;;;;;;4.30;99.90;;;;;;5000113;28;19936;-74
2023/01/23 11:02:12;;;;;;;;;;;4.30;99.90;;;;;;5004155;28;20461;-72
2023/01/23 11:04:38;;;;;;;;;;;4.40;99.90;;;;;;5008251;28;19910;-74
2023/01/23 11:07:04;;;;;;;;;;;4.30;99.90;;;;;;5014432;28;19918;-72
2023/01/23 11:09:32;;;;;;;;;;;4.40;99.90;;;;;;5021218;28;19910;-73
2023/01/23 11:11:59;;;;;;;;;;;4.30;99.90;;;;;;5022357;28;19913;-72
2023/01/23 11:14:24;;;;;;;;;;;4.40;99.90;;;;;;5020803;28;19928;-72
2023/01/23 11:17:00;;;;;;;;;;;4.40;99.90;;;;;;5022987;28;19910;-77
2023/01/23 11:19:28;;;;;;;;;;;4.50;99.90;;;;;;5015906;28;19910;-72
2023/01/23 11:21:56;;;;;;;;;;;4.50;99.90;;;;;;5014110;28;19913;-73
2023/01/23 11:24:24;;;;;;;;;;;4.50;99.90;;;;;;5006334;28;20419;-73
2023/01/23 11:27:03;;;;;;;;;;;4.40;99.90;;;;;;5016313;28;19944;-73
2023/01/23 11:29:30;;;;;;;;;;;4.30;99.90;;;;;;5016675;28;19916;-72
2023/01/23 11:32:09;;;;;;;;;;;4.30;99.90;;;;;;5018816;28;19948;-74
2023/01/23 11:34:42;;;;;;;;;;;4.40;99.90;;;;;;5011333;28;19909;-75
2023/01/23 11:37:13;;;;;;;;;;;4.50;99.90;;;;;;5017832;28;19917;-72
2023/01/23 11:39:46;;;;;;;;;;;4.30;99.90;;;;;;5016779;28;19913;-73
2023/01/23 11:42:12;;;;;;;;;;;4.40;99.90;;;;;;5008979;28;20578;-73
2023/01/23 11:44:39;;;;;;;;;;;4.40;99.90;;;;;;5010120;28;19910;-75
2023/01/23 11:47:22;;;;;;;;;;;4.30;99.90;;;;;;5008711;28;20469;-77
2023/01/23 11:49:54;;;;;;;;;;;4.20;99.90;;;;;;5009822;28;20497;-75
2023/01/23 11:52:42;;;;;;;;;;;4.30;99.90;;;;;;5005561;28;20434;-73
2023/01/23 11:55:14;;;;;;;;;;;4.30;99.90;;;;;;4998428;28;19992;-76
2023/01/23 11:57:58;;;;;;;;;;;4.40;99.90;;;;;;5005079;28;20281;-74
2023/01/23 12:00:34;;;;;;;;;;;4.30;99.90;;;;;;5014482;28;20183;-76
2023/01/23 12:03:15;;;;;;;;;;;4.30;99.90;;;;;;4998491;28;20679;-75
2023/01/23 12:05:58;;;;;;;;;;;4.50;99.90;;;;;;5019064;28;19909;-73
2023/01/23 12:08:38;;;;;;;;;;;4.40;99.90;;;;;;4994869;28;20009;-74
2023/01/23 12:11:11;;;;;;;;;;;4.50;99.90;;;;;;5005994;28;20010;-75
2023/01/23 12:13:56;;;;;;;;;;;4.50;99.90;;;;;;5009289;28;19971;-75
2023/01/23 12:16:44;;;;;;;;;;;4.40;99.90;;;;;;5004441;28;19915;-74
2023/01/23 12:19:09;;;;;;;;;;;4.40;99.90;;;;;;5018064;28;19909;-74
2023/01/23 12:21:43;;;;;;;;;;;4.40;99.90;;;;;;5006924;28;19972;-74
2023/01/23 12:24:27;;;;;;;;;;;4.50;99.90;;;;;;5007128;28;19968;-76
2023/01/23 12:26:53;;;;;;;;;;;4.50;99.90;;;;;;5004289;28;19940;-74
2023/01/23 12:29:21;;;;;;;;;;;4.50;99.90;;;;;;5011378;28;19913;-72
2023/01/23 12:31:54;;;;;;;;;;;4.50;99.90;;;;;;5012963;28;19913;-71
2023/01/23 12:34:25;;;;;;;;;;;4.50;99.90;;;;;;5005195;28;19940;-74
2023/01/23 12:37:11;;;;;;;;;;;4.50;99.90;;;;;;5012244;28;19984;-73
2023/01/23 12:39:36;;;;;;;;;;;4.50;99.90;;;;;;5011924;28;19920;-74
2023/01/23 12:42:06;;;;;;;;;;;4.50;99.90;;;;;;5015723;28;19918;-75
2023/01/23 12:44:36;;;;;;;;;;;4.60;99.90;;;;;;5018084;28;19909;-75
2023/01/23 12:47:08;;;;;;;;;;;4.40;99.90;;;;;;5015879;28;19909;-76
2023/01/23 12:49:57;;;;;;;;;;;4.30;99.90;;;;;;5009315;28;20003;-72
2023/01/23 12:52:34;;;;;;;;;;;4.30;99.90;;;;;;5007867;28;19947;-76
2023/01/23 12:55:12;;;;;;;;;;;4.30;99.90;;;;;;5000803;28;20019;-76
2023/01/23 12:57:43;;;;;;;;;;;4.40;99.90;;;;;;5010276;28;20009;-74
2023/01/23 13:00:11;;;;;;;;;;;4.30;99.90;;;;;;5014787;28;20293;-72
2023/01/23 13:02:46;;;;;;;;;;;4.40;99.90;;;;;;5005858;28;19948;-70
2023/01/23 13:05:12;;;;;;;;;;;4.20;99.90;;;;;;5002996;28;19956;-71
2023/01/23 13:07:42;;;;;;;;;;;4.30;99.90;;;;;;5004834;28;19918;-71
2023/01/23 13:10:19;;;;;;;;;;;4.30;99.90;;;;;;5005129;28;19921;-75
2023/01/23 13:12:44;;;;;;;;;;;4.20;99.90;;;;;;5025474;28;19909;-76
2023/01/23 13:15:10;;;;;;;;;;;4.20;99.90;;;;;;5005690;28;20248;-74
2023/01/23 13:17:37;;;;;;;;;;;4.30;99.90;;;;;;5004009;28;19918;-73
2023/01/23 13:23:20;;;;;;;;;;;4.50;99.90;;;;;;4997245;28;19968;-74
2023/01/23 13:25:45;;;;;;;;;;;4.40;99.90;;;;;;5000496;28;20399;-77
2023/01/23 13:28:25;;;;;;;;;;;4.30;99.90;;;;;;4997568;28;19910;-74
2023/01/23 13:31:00;;;;;;;;;;;4.30;99.90;;;;;;4999296;28;19914;-76
2023/01/23 13:33:32;;;;;;;;;;;4.30;99.90;;;;;;5004724;28;19935;-73
2023/01/23 13:36:10;;;;;;;;;;;4.40;99.90;;;;;;5000328;28;19913;-74
2023/01/23 13:38:38;;;;;;;;;;;4.30;99.90;;;;;;4997446;28;19917;-74
2023/01/23 13:41:03;;;;;;;;;;;4.40;99.90;;;;;;4998765;28;20412;-73
2023/01/23 13:43:47;;;;;;;;;;;4.40;99.90;;;;;;4995805;28;20056;-77
2023/01/23 13:46:32;;;;;;;;;;;4.40;99.90;;;;;;5003089;28;19984;-75
2023/01/23 13:57:40;;;;;;;;;;;4.50;99.90;;;;;;5002186;28;19937;-73
2023/01/23 14:00:11;;;;;;;;;;;4.60;99.90;;;;;;4997426;28;19913;-77
2023/01/23 14:05:42;;;;;;;;;;;4.50;99.90;;;;;;4972280;28;19953;-74
2023/01/23 14:08:16;;;;;;;;;;;4.40;99.90;;;;;;4976911;28;20001;-74
2023/01/23 14:10:44;;;;;;;;;;;4.40;99.90;;;;;;4980982;28;20411;-72
2023/01/23 14:13:11;;;;;;;;;;;4.50;99.90;;;;;;5013788;28;19914;-77
2023/01/23 14:18:51;;;;;;;;;;;4.70;99.90;;;;;;5011421;28;19920;-74
2023/01/23 14:21:24;;;;;;;;;;;4.70;99.90;;;;;;4997621;28;19913;-75
2023/01/23 14:23:52;;;;;;;;;;;4.60;99.90;;;;;;5014733;28;20031;-74
2023/01/23 14:26:19;;;;;;;;;;;4.60;99.90;;;;;;5005220;28;19910;-75
2023/01/23 14:28:56;;;;;;;;;;;4.50;99.90;;;;;;5015676;28;20441;-80
2023/01/23 14:31:27;;;;;;;;;;;4.60;99.90;;;;;;5033057;28;19906;-80
2023/01/23 14:34:04;;;;;;;;;;;4.70;99.90;;;;;;5016284;28;19917;-78
2023/01/23 14:36:31;;;;;;;;;;;4.70;99.90;;;;;;5011882;28;20407;-74
2023/01/23 14:38:57;;;;;;;;;;;4.60;99.90;;;;;;5011900;28;20017;-75
2023/01/23 14:41:26;;;;;;;;;;;4.60;99.90;;;;;;5017415;28;19920;-74
2023/01/23 14:43:53;;;;;;;;;;;4.60;99.90;;;;;;5020770;28;20461;-73
2023/01/23 14:46:20;;;;;;;;;;;4.60;99.90;;;;;;5007224;28;19920;-76
2023/01/23 14:48:51;;;;;;;;;;;4.70;99.90;;;;;;5012040;28;19982;-76
2023/01/23 14:51:19;;;;;;;;;;;4.70;99.90;;;;;;5012685;28;20058;-75
2023/01/23 14:54:01;;;;;;;;;;;4.70;99.90;;;;;;5005258;28;20310;-75
2023/01/23 14:56:29;;;;;;;;;;;4.80;99.90;;;;;;5015346;28;20398;-74
2023/01/23 14:58:59;;;;;;;;;;;4.70;99.90;;;;;;5019130;28;20505;-75
2023/01/23 15:01:25;;;;;;;;;;;4.70;99.90;;;;;;5014980;28;20019;-74